sensor_id;sensor_type;location;lat;lon;timestamp;temperature;humidity
45735;DHT22;31446;49.632;8.328;2023-07-08T00:13:32;21.30;89.60
45735;DHT22;31446;49.632;8.328;2023-07-08T00:28:39;21.10;90.20
45735;DHT22;31446;49.632;8.328;2023-07-08T00:43:47;21.10;90.20
45735;DHT22;31446;49.632;8.328;2023-07-08T00:58:58;20.90;90.50
45735;DHT22;31446;49.632;8.328;2023-07-08T01:14:06;20.70;91.10
45735;DHT22;31446;49.632;8.328;2023-07-08T01:29:13;20.60;91.00
45735;DHT22;31446;49.632;8.328;2023-07-08T01:44:28;20.30;92.10
45735;DHT22;31446;49.632;8.328;2023-07-08T01:59:34;20.10;92.60
45735;DHT22;31446;49.632;8.328;2023-07-08T02:14:40;20.00;92.60
45735;DHT22;31446;49.632;8.328;2023-07-08T02:29:46;19.70;93.40
45735;DHT22;31446;49.632;8.328;2023-07-08T02:44:52;19.60;94.00
45735;DHT22;31446;49.632;8.328;2023-07-08T03:00:06;19.30;94.70
45735;DHT22;31446;49.632;8.328;2023-07-08T03:15:12;19.30;95.30
45735;DHT22;31446;49.632;8.328;2023-07-08T03:30:18;19.30;95.50
45735;DHT22;31446;49.632;8.328;2023-07-08T03:45:26;19.50;94.50
45735;DHT22;31446;49.632;8.328;2023-07-08T04:00:32;19.60;94.00
45735;DHT22;31446;49.632;8.328;2023-07-08T04:15:38;19.90;93.40
45735;DHT22;31446;49.632;8.328;2023-07-08T04:30:44;20.10;93.40
45735;DHT22;31446;49.632;8.328;2023-07-08T04:45:52;20.60;93.20
45735;DHT22;31446;49.632;8.328;2023-07-08T05:01:00;21.60;92.10
45735;DHT22;31446;49.632;8.328;2023-07-08T05:16:08;22.70;90.30
45735;DHT22;31446;49.632;8.328;2023-07-08T05:31:14;23.20;90.20
45735;DHT22;31446;49.632;8.328;2023-07-08T05:46:20;21.60;93.00
45735;DHT22;31446;49.632;8.328;2023-07-08T06:01:26;20.90;95.30
45735;DHT22;31446;49.632;8.328;2023-07-08T06:16:33;20.70;95.20
45735;DHT22;31446;49.632;8.328;2023-07-08T06:31:40;20.70;99.90
45735;DHT22;31446;49.632;8.328;2023-07-08T06:46:46;20.60;99.90
45735;DHT22;31446;49.632;8.328;2023-07-08T07:01:52;21.10;99.90
45735;DHT22;31446;49.632;8.328;2023-07-08T07:16:59;22.80;98.60
45735;DHT22;31446;49.632;8.328;2023-07-08T07:32:06;23.00;99.90
45735;DHT22;31446;49.632;8.328;2023-07-08T07:47:13;24.70;96.90
45735;DHT22;31446;49.632;8.328;2023-07-08T08:02:19;25.30;95.60
45735;DHT22;31446;49.632;8.328;2023-07-08T08:17:26;25.10;95.00
45735;DHT22;31446;49.632;8.328;2023-07-08T08:32:32;26.70;93.20
45735;DHT22;31446;49.632;8.328;2023-07-08T08:47:40;26.00;93.30
45735;DHT22;31446;49.632;8.328;2023-07-08T09:02:58;26.80;93.20
45735;DHT22;31446;49.632;8.328;2023-07-08T09:18:15;27.40;90.60
45735;DHT22;31446;49.632;8.328;2023-07-08T09:33:24;27.80;89.90
45735;DHT22;31446;49.632;8.328;2023-07-08T09:48:34;28.20;90.60
45735;DHT22;31446;49.632;8.328;2023-07-08T10:03:41;28.50;89.20
45735;DHT22;31446;49.632;8.328;2023-07-08T10:18:48;29.40;87.70
45735;DHT22;31446;49.632;8.328;2023-07-08T10:49:39;30.10;85.90
45735;DHT22;31446;49.632;8.328;2023-07-08T11:04:55;30.40;84.40
45735;DHT22;31446;49.632;8.328;2023-07-08T11:20:13;30.90;84.10
45735;DHT22;31446;49.632;8.328;2023-07-08T11:35:25;31.40;85.80
45735;DHT22;31446;49.632;8.328;2023-07-08T11:50:36;32.30;85.40
45735;DHT22;31446;49.632;8.328;2023-07-08T12:05:43;32.20;85.20
45735;DHT22;31446;49.632;8.328;2023-07-08T12:20:55;32.60;83.30
45735;DHT22;31446;49.632;8.328;2023-07-08T12:36:03;32.80;82.40
45735;DHT22;31446;49.632;8.328;2023-07-08T12:51:14;33.00;81.90
45735;DHT22;31446;49.632;8.328;2023-07-08T13:06:23;33.10;79.00
45735;DHT22;31446;49.632;8.328;2023-07-08T13:21:30;33.40;78.10
45735;DHT22;31446;49.632;8.328;2023-07-08T13:36:39;33.10;77.70
45735;DHT22;31446;49.632;8.328;2023-07-08T13:51:46;33.60;78.50
45735;DHT22;31446;49.632;8.328;2023-07-08T14:06:53;33.50;77.70
45735;DHT22;31446;49.632;8.328;2023-07-08T14:22:24;33.80;77.60
45735;DHT22;31446;49.632;8.328;2023-07-08T14:37:31;33.80;77.70
45735;DHT22;31446;49.632;8.328;2023-07-08T14:52:37;33.90;77.80
45735;DHT22;31446;49.632;8.328;2023-07-08T15:07:59;33.60;76.90
45735;DHT22;31446;49.632;8.328;2023-07-08T15:23:11;33.70;76.50
45735;DHT22;31446;49.632;8.328;2023-07-08T15:38:18;33.60;78.00
45735;DHT22;31446;49.632;8.328;2023-07-08T15:53:24;33.10;78.30
45735;DHT22;31446;49.632;8.328;2023-07-08T16:08:32;33.30;78.10
45735;DHT22;31446;49.632;8.328;2023-07-08T16:23:39;33.00;76.90
45735;DHT22;31446;49.632;8.328;2023-07-08T16:38:46;33.30;76.80
45735;DHT22;31446;49.632;8.328;2023-07-08T16:53:56;33.40;75.20
45735;DHT22;31446;49.632;8.328;2023-07-08T17:09:04;32.50;76.30
45735;DHT22;31446;49.632;8.328;2023-07-08T17:24:11;31.40;76.60
45735;DHT22;31446;49.632;8.328;2023-07-08T17:39:19;30.60;76.50
45735;DHT22;31446;49.632;8.328;2023-07-08T17:54:27;25.80;92.40
45735;DHT22;31446;49.632;8.328;2023-07-08T18:09:54;23.40;99.90
45735;DHT22;31446;49.632;8.328;2023-07-08T18:40:18;23.70;99.90
45735;DHT22;31446;49.632;8.328;2023-07-08T18:55:25;24.50;99.90
45735;DHT22;31446;49.632;8.328;2023-07-08T19:10:32;24.80;99.90
45735;DHT22;31446;49.632;8.328;2023-07-08T19:25:38;24.40;99.90
45735;DHT22;31446;49.632;8.328;2023-07-08T19:40:47;23.90;99.90
45735;DHT22;31446;49.632;8.328;2023-07-08T19:55:53;23.70;99.90
45735;DHT22;31446;49.632;8.328;2023-07-08T20:11:00;23.20;99.90
45735;DHT22;31446;49.632;8.328;2023-07-08T20:26:26;22.70;99.90
45735;DHT22;31446;49.632;8.328;2023-07-08T20:41:33;22.30;99.90
45735;DHT22;31446;49.632;8.328;2023-07-08T20:56:39;22.40;99.90
45735;DHT22;31446;49.632;8.328;2023-07-08T21:27:19;22.20;99.90
45735;DHT22;31446;49.632;8.328;2023-07-08T21:42:26;22.00;99.90
45735;DHT22;31446;49.632;8.328;2023-07-08T21:57:32;21.50;99.90
45735;DHT22;31446;49.632;8.328;2023-07-08T22:12:38;21.20;99.90
45735;DHT22;31446;49.632;8.328;2023-07-08T22:27:45;21.00;99.90
45735;DHT22;31446;49.632;8.328;2023-07-08T22:42:52;20.90;99.90
45735;DHT22;31446;49.632;8.328;2023-07-08T22:58:02;20.80;99.90
45735;DHT22;31446;49.632;8.328;2023-07-08T23:13:14;20.60;99.90
45735;DHT22;31446;49.632;8.328;2023-07-08T23:28:20;20.40;99.90
45735;DHT22;31446;49.632;8.328;2023-07-08T23:43:27;20.30;99.90
45735;DHT22;31446;49.632;8.328;2023-07-08T23:58:33;20.20;99.90
